sensor_id;sensor_type;location;lat;lon;timestamp;pressure;altitude;pressure_sealevel;temperature;humidity
79703;BME280;69172;52.352;5.006;2023-07-31T00:01:53;100899.78;;;16.62;100.00
79703;BME280;69172;52.352;5.006;2023-07-31T00:04:19;100900.91;;;16.71;100.00
79703;BME280;69172;52.352;5.006;2023-07-31T00:06:44;100898.44;;;16.75;100.00
79703;BME280;69172;52.352;5.006;2023-07-31T00:09:10;100890.63;;;16.75;99.39
79703;BME280;69172;52.352;5.006;2023-07-31T00:11:35;100888.88;;;16.74;99.23
79703;BME280;69172;52.352;5.006;2023-07-31T00:14:01;100898.50;;;16.77;99.40
79703;BME280;69172;52.352;5.006;2023-07-31T00:16:26;100901.16;;;16.80;98.84
79703;BME280;69172;52.352;5.006;2023-07-31T00:18:51;100896.84;;;16.80;98.66
79703;BME280;69172;52.352;5.006;2023-07-31T00:21:17;100889.94;;;16.81;98.63
79703;BME280;69172;52.352;5.006;2023-07-31T00:23:42;100884.56;;;16.75;98.99
79703;BME280;69172;52.352;5.006;2023-07-31T00:26:08;100890.63;;;16.75;99.40
79703;BME280;69172;52.352;5.006;2023-07-31T00:28:33;100887.16;;;16.75;99.11
79703;BME280;69172;52.352;5.006;2023-07-31T00:30:58;100888.00;;;16.74;99.71
79703;BME280;69172;52.352;5.006;2023-07-31T00:33:24;100880.16;;;16.72;100.00
79703;BME280;69172;52.352;5.006;2023-07-31T00:35:49;100880.94;;;16.70;100.00
79703;BME280;69172;52.352;5.006;2023-07-31T00:38:14;100882.63;;;16.67;100.00
79703;BME280;69172;52.352;5.006;2023-07-31T00:40:40;100879.91;;;16.64;100.00
79703;BME280;69172;52.352;5.006;2023-07-31T00:43:06;100875.66;;;16.66;100.00
79703;BME280;69172;52.352;5.006;2023-07-31T00:45:33;100877.41;;;16.67;100.00
79703;BME280;69172;52.352;5.006;2023-07-31T00:47:59;100878.34;;;16.70;100.00
79703;BME280;69172;52.352;5.006;2023-07-31T00:50:25;100874.06;;;16.72;100.00
79703;BME280;69172;52.352;5.006;2023-07-31T00:52:50;100869.72;;;16.71;100.00
79703;BME280;69172;52.352;5.006;2023-07-31T00:55:16;100876.66;;;16.72;100.00
79703;BME280;69172;52.352;5.006;2023-07-31T00:57:42;100877.84;;;16.81;100.00
79703;BME280;69172;52.352;5.006;2023-07-31T01:00:09;100875.13;;;16.77;100.00
79703;BME280;69172;52.352;5.006;2023-07-31T01:02:35;100869.94;;;16.77;100.00
79703;BME280;69172;52.352;5.006;2023-07-31T01:05:02;100864.66;;;16.75;100.00
79703;BME280;69172;52.352;5.006;2023-07-31T01:07:36;100860.28;;;16.74;100.00
79703;BME280;69172;52.352;5.006;2023-07-31T01:10:24;100868.06;;;16.73;100.00
79703;BME280;69172;52.352;5.006;2023-07-31T01:12:52;100879.38;;;16.75;100.00
79703;BME280;69172;52.352;5.006;2023-07-31T01:15:18;100863.75;;;16.73;99.85
79703;BME280;69172;52.352;5.006;2023-07-31T01:17:44;100866.38;;;16.75;100.00
79703;BME280;69172;52.352;5.006;2023-07-31T01:20:12;100862.06;;;16.75;100.00
79703;BME280;69172;52.352;5.006;2023-07-31T01:31:20;100857.25;;;16.60;100.00
79703;BME280;69172;52.352;5.006;2023-07-31T01:33:46;100853.81;;;16.60;100.00
79703;BME280;69172;52.352;5.006;2023-07-31T01:36:12;100845.13;;;16.59;100.00
79703;BME280;69172;52.352;5.006;2023-07-31T01:38:39;100845.97;;;16.58;100.00
79703;BME280;69172;52.352;5.006;2023-07-31T01:41:05;100846.84;;;16.59;100.00
79703;BME280;69172;52.352;5.006;2023-07-31T01:43:31;100848.66;;;16.61;100.00
79703;BME280;69172;52.352;5.006;2023-07-31T01:45:56;100844.28;;;16.60;100.00
79703;BME280;69172;52.352;5.006;2023-07-31T01:48:23;100852.94;;;16.59;100.00
79703;BME280;69172;52.352;5.006;2023-07-31T01:50:48;100835.53;;;16.57;100.00
79703;BME280;69172;52.352;5.006;2023-07-31T01:53:14;100843.47;;;16.61;100.00
79703;BME280;69172;52.352;5.006;2023-07-31T01:55:40;100831.41;;;16.63;100.00
79703;BME280;69172;52.352;5.006;2023-07-31T01:58:06;100822.81;;;16.66;100.00
79703;BME280;69172;52.352;5.006;2023-07-31T02:00:32;100828.88;;;16.65;100.00
79703;BME280;69172;52.352;5.006;2023-07-31T02:02:59;100819.31;;;16.64;100.00
79703;BME280;69172;52.352;5.006;2023-07-31T02:05:24;100824.66;;;16.69;100.00
79703;BME280;69172;52.352;5.006;2023-07-31T02:07:50;100817.78;;;16.71;100.00
79703;BME280;69172;52.352;5.006;2023-07-31T02:10:15;100823.00;;;16.72;100.00
79703;BME280;69172;52.352;5.006;2023-07-31T02:12:40;100812.78;;;16.77;100.00
79703;BME280;69172;52.352;5.006;2023-07-31T02:15:06;100813.63;;;16.77;100.00
79703;BME280;69172;52.352;5.006;2023-07-31T02:17:32;100808.44;;;16.77;100.00
79703;BME280;69172;52.352;5.006;2023-07-31T02:19:59;100809.50;;;16.82;99.73
79703;BME280;69172;52.352;5.006;2023-07-31T02:22:25;100805.16;;;16.83;99.67
79703;BME280;69172;52.352;5.006;2023-07-31T02:24:50;100799.84;;;16.78;99.73
79703;BME280;69172;52.352;5.006;2023-07-31T02:27:15;100805.13;;;16.81;99.89
79703;BME280;69172;52.352;5.006;2023-07-31T02:29:42;100805.84;;;16.77;100.00
79703;BME280;69172;52.352;5.006;2023-07-31T02:32:07;100802.44;;;16.78;100.00
79703;BME280;69172;52.352;5.006;2023-07-31T02:34:32;100805.75;;;16.74;100.00
79703;BME280;69172;52.352;5.006;2023-07-31T02:36:59;100804.81;;;16.71;100.00
79703;BME280;69172;52.352;5.006;2023-07-31T02:39:24;100800.41;;;16.68;100.00
79703;BME280;69172;52.352;5.006;2023-07-31T02:41:50;100797.81;;;16.68;100.00
79703;BME280;69172;52.352;5.006;2023-07-31T02:44:15;100787.50;;;16.71;100.00
79703;BME280;69172;52.352;5.006;2023-07-31T02:46:40;100789.22;;;16.71;100.00
79703;BME280;69172;52.352;5.006;2023-07-31T02:49:06;100789.25;;;16.72;99.78
79703;BME280;69172;52.352;5.006;2023-07-31T02:51:31;100784.91;;;16.71;100.00
79703;BME280;69172;52.352;5.006;2023-07-31T02:53:57;100784.13;;;16.74;99.50
79703;BME280;69172;52.352;5.006;2023-07-31T02:56:23;100792.78;;;16.74;99.45
79703;BME280;69172;52.352;5.006;2023-07-31T02:58:48;100784.94;;;16.73;99.92
79703;BME280;69172;52.352;5.006;2023-07-31T03:01:14;100782.44;;;16.76;99.39
79703;BME280;69172;52.352;5.006;2023-07-31T03:03:41;100770.25;;;16.73;99.01
79703;BME280;69172;52.352;5.006;2023-07-31T03:06:06;100768.56;;;16.75;99.27
79703;BME280;69172;52.352;5.006;2023-07-31T03:08:32;100783.22;;;16.73;99.32
79703;BME280;69172;52.352;5.006;2023-07-31T03:10:57;100771.94;;;16.71;98.09
79703;BME280;69172;52.352;5.006;2023-07-31T03:13:22;100764.19;;;16.74;97.89
79703;BME280;69172;52.352;5.006;2023-07-31T03:15:54;100766.97;;;16.80;97.84
79703;BME280;69172;52.352;5.006;2023-07-31T03:18:25;100784.13;;;16.74;97.78
79703;BME280;69172;52.352;5.006;2023-07-31T03:20:50;100778.03;;;16.73;98.16
79703;BME280;69172;52.352;5.006;2023-07-31T03:23:15;100778.94;;;16.74;98.16
79703;BME280;69172;52.352;5.006;2023-07-31T03:25:55;100769.47;;;16.76;98.19
79703;BME280;69172;52.352;5.006;2023-07-31T03:28:22;100767.78;;;16.78;97.68
79703;BME280;69172;52.352;5.006;2023-07-31T03:30:48;100762.59;;;16.78;97.97
79703;BME280;69172;52.352;5.006;2023-07-31T03:33:13;100765.19;;;16.78;97.09
79703;BME280;69172;52.352;5.006;2023-07-31T03:35:38;100758.19;;;16.75;97.79
79703;BME280;69172;52.352;5.006;2023-07-31T03:38:04;100766.09;;;16.80;98.01
79703;BME280;69172;52.352;5.006;2023-07-31T03:40:30;100751.47;;;16.82;97.85
79703;BME280;69172;52.352;5.006;2023-07-31T03:42:56;100760.13;;;16.82;97.83
79703;BME280;69172;52.352;5.006;2023-07-31T03:45:21;100748.69;;;16.76;97.58
79703;BME280;69172;52.352;5.006;2023-07-31T03:47:47;100756.38;;;16.73;98.12
79703;BME280;69172;52.352;5.006;2023-07-31T03:50:12;100751.94;;;16.69;98.70
79703;BME280;69172;52.352;5.006;2023-07-31T03:52:37;100743.97;;;16.62;99.27
79703;BME280;69172;52.352;5.006;2023-07-31T03:55:03;100746.50;;;16.61;99.46
79703;BME280;69172;52.352;5.006;2023-07-31T03:57:28;100743.09;;;16.62;99.65
79703;BME280;69172;52.352;5.006;2023-07-31T03:59:54;100732.72;;;16.63;98.84
79703;BME280;69172;52.352;5.006;2023-07-31T04:02:19;100732.72;;;16.63;98.79
79703;BME280;69172;52.352;5.006;2023-07-31T04:04:45;100737.00;;;16.61;99.20
79703;BME280;69172;52.352;5.006;2023-07-31T04:07:10;100725.72;;;16.61;99.40
79703;BME280;69172;52.352;5.006;2023-07-31T04:09:35;100722.19;;;16.57;99.84
79703;BME280;69172;52.352;5.006;2023-07-31T04:12:02;100717.81;;;16.56;100.00
79703;BME280;69172;52.352;5.006;2023-07-31T04:14:27;100718.78;;;16.60;99.65
79703;BME280;69172;52.352;5.006;2023-07-31T04:16:53;100724.84;;;16.60;99.43
79703;BME280;69172;52.352;5.006;2023-07-31T04:19:18;100723.03;;;16.58;100.00
79703;BME280;69172;52.352;5.006;2023-07-31T04:21:43;100725.50;;;16.53;99.91
79703;BME280;69172;52.352;5.006;2023-07-31T04:24:09;100727.16;;;16.51;100.00
79703;BME280;69172;52.352;5.006;2023-07-31T04:26:34;100719.28;;;16.48;100.00
79703;BME280;69172;52.352;5.006;2023-07-31T04:29:00;100716.03;;;16.55;100.00
79703;BME280;69172;52.352;5.006;2023-07-31T04:31:25;100719.66;;;16.60;100.00
79703;BME280;69172;52.352;5.006;2023-07-31T04:33:50;100706.63;;;16.59;100.00
79703;BME280;69172;52.352;5.006;2023-07-31T04:36:16;100702.22;;;16.56;99.83
79703;BME280;69172;52.352;5.006;2023-07-31T04:38:41;100700.47;;;16.55;100.00
79703;BME280;69172;52.352;5.006;2023-07-31T04:41:06;100708.34;;;16.58;100.00
79703;BME280;69172;52.352;5.006;2023-07-31T04:43:32;100704.91;;;16.59;100.00
79703;BME280;69172;52.352;5.006;2023-07-31T04:45:57;100698.75;;;16.56;100.00
79703;BME280;69172;52.352;5.006;2023-07-31T04:48:23;100697.03;;;16.56;100.00
79703;BME280;69172;52.352;5.006;2023-07-31T04:50:49;100696.81;;;16.50;100.00
79703;BME280;69172;52.352;5.006;2023-07-31T04:53:14;100694.03;;;16.44;100.00
79703;BME280;69172;52.352;5.006;2023-07-31T04:55:39;100683.81;;;16.49;100.00
79703;BME280;69172;52.352;5.006;2023-07-31T04:58:05;100685.31;;;16.41;100.00
79703;BME280;69172;52.352;5.006;2023-07-31T05:00:31;100677.34;;;16.36;100.00
79703;BME280;69172;52.352;5.006;2023-07-31T05:02:57;100688.69;;;16.38;100.00
79703;BME280;69172;52.352;5.006;2023-07-31T05:05:22;100676.56;;;16.39;100.00
79703;BME280;69172;52.352;5.006;2023-07-31T05:07:48;100671.34;;;16.37;100.00
79703;BME280;69172;52.352;5.006;2023-07-31T05:10:13;100678.06;;;16.31;100.00
79703;BME280;69172;52.352;5.006;2023-07-31T05:12:39;100679.91;;;16.35;100.00
79703;BME280;69172;52.352;5.006;2023-07-31T05:15:04;100670.44;;;16.35;100.00
79703;BME280;69172;52.352;5.006;2023-07-31T05:17:31;100668.56;;;16.31;100.00
79703;BME280;69172;52.352;5.006;2023-07-31T05:19:57;100673.13;;;16.38;100.00
79703;BME280;69172;52.352;5.006;2023-07-31T05:22:22;100666.13;;;16.36;100.00
79703;BME280;69172;52.352;5.006;2023-07-31T05:24:48;100656.03;;;16.46;100.00
79703;BME280;69172;52.352;5.006;2023-07-31T05:27:13;100651.59;;;16.42;100.00
79703;BME280;69172;52.352;5.006;2023-07-31T05:29:43;100657.66;;;16.43;100.00
79703;BME280;69172;52.352;5.006;2023-07-31T05:32:09;100657.53;;;16.38;100.00
79703;BME280;69172;52.352;5.006;2023-07-31T05:34:35;100646.19;;;16.35;100.00
79703;BME280;69172;52.352;5.006;2023-07-31T05:37:03;100648.88;;;16.38;100.00
79703;BME280;69172;52.352;5.006;2023-07-31T05:39:28;100647.88;;;16.34;100.00
79703;BME280;69172;52.352;5.006;2023-07-31T05:41:53;100637.00;;;16.18;100.00
79703;BME280;69172;52.352;5.006;2023-07-31T05:44:19;100635.28;;;16.17;100.00
79703;BME280;69172;52.352;5.006;2023-07-31T05:46:44;100626.59;;;16.16;100.00
79703;BME280;69172;52.352;5.006;2023-07-31T05:49:09;100640.38;;;16.14;100.00
79703;BME280;69172;52.352;5.006;2023-07-31T05:51:35;100639.38;;;16.10;100.00
79703;BME280;69172;52.352;5.006;2023-07-31T05:54:00;100631.47;;;16.05;100.00
79703;BME280;69172;52.352;5.006;2023-07-31T05:56:27;100625.34;;;16.03;100.00
79703;BME280;69172;52.352;5.006;2023-07-31T05:58:52;100631.41;;;16.04;100.00
79703;BME280;69172;52.352;5.006;2023-07-31T06:01:18;100624.47;;;16.03;100.00
79703;BME280;69172;52.352;5.006;2023-07-31T06:03:43;100622.91;;;16.08;100.00
79703;BME280;69172;52.352;5.006;2023-07-31T06:06:09;100622.19;;;16.14;100.00
79703;BME280;69172;52.352;5.006;2023-07-31T06:08:35;100614.41;;;16.14;100.00
79703;BME280;69172;52.352;5.006;2023-07-31T06:11:00;100619.53;;;16.12;100.00
79703;BME280;69172;52.352;5.006;2023-07-31T06:13:26;100616.78;;;16.06;100.00
79703;BME280;69172;52.352;5.006;2023-07-31T06:15:52;100610.66;;;16.04;100.00
79703;BME280;69172;52.352;5.006;2023-07-31T06:18:17;100609.75;;;16.03;100.00
79703;BME280;69172;52.352;5.006;2023-07-31T06:20:43;100621.13;;;16.07;100.00
79703;BME280;69172;52.352;5.006;2023-07-31T06:23:08;100606.63;;;16.14;100.00
79703;BME280;69172;52.352;5.006;2023-07-31T06:25:33;100611.75;;;16.12;100.00
79703;BME280;69172;52.352;5.006;2023-07-31T06:27:59;100600.50;;;16.12;100.00
79703;BME280;69172;52.352;5.006;2023-07-31T06:30:24;100612.88;;;16.20;100.00
79703;BME280;69172;52.352;5.006;2023-07-31T06:32:50;100600.06;;;16.26;100.00
79703;BME280;69172;52.352;5.006;2023-07-31T06:35:15;100588.97;;;16.30;100.00
79703;BME280;69172;52.352;5.006;2023-07-31T06:37:40;100586.28;;;16.27;100.00
79703;BME280;69172;52.352;5.006;2023-07-31T06:40:09;100589.09;;;16.35;100.00
79703;BME280;69172;52.352;5.006;2023-07-31T06:42:35;100583.88;;;16.35;100.00
79703;BME280;69172;52.352;5.006;2023-07-31T06:45:01;100569.00;;;16.28;100.00
79703;BME280;69172;52.352;5.006;2023-07-31T06:47:26;100581.13;;;16.29;100.00
79703;BME280;69172;52.352;5.006;2023-07-31T06:49:52;100585.28;;;16.22;100.00
79703;BME280;69172;52.352;5.006;2023-07-31T06:52:17;100576.91;;;16.32;100.00
79703;BME280;69172;52.352;5.006;2023-07-31T06:54:43;100574.34;;;16.34;100.00
79703;BME280;69172;52.352;5.006;2023-07-31T06:57:08;100577.03;;;16.37;100.00
79703;BME280;69172;52.352;5.006;2023-07-31T06:59:34;100579.59;;;16.35;100.00
79703;BME280;69172;52.352;5.006;2023-07-31T07:01:59;100579.53;;;16.34;100.00
79703;BME280;69172;52.352;5.006;2023-07-31T07:04:25;100578.03;;;16.42;100.00
79703;BME280;69172;52.352;5.006;2023-07-31T07:06:53;100572.91;;;16.45;100.00
79703;BME280;69172;52.352;5.006;2023-07-31T07:09:19;100574.72;;;16.47;100.00
79703;BME280;69172;52.352;5.006;2023-07-31T07:11:44;100561.72;;;16.47;100.00
79703;BME280;69172;52.352;5.006;2023-07-31T07:14:10;100571.03;;;16.39;100.00
79703;BME280;69172;52.352;5.006;2023-07-31T07:16:35;100567.00;;;16.49;100.00
79703;BME280;69172;52.352;5.006;2023-07-31T07:19:00;100561.94;;;16.53;100.00
79703;BME280;69172;52.352;5.006;2023-07-31T07:21:26;100560.34;;;16.58;100.00
79703;BME280;69172;52.352;5.006;2023-07-31T07:23:51;100570.81;;;16.61;100.00
79703;BME280;69172;52.352;5.006;2023-07-31T07:26:17;100571.78;;;16.65;100.00
79703;BME280;69172;52.352;5.006;2023-07-31T07:28:42;100570.03;;;16.64;100.00
79703;BME280;69172;52.352;5.006;2023-07-31T07:31:08;100576.00;;;16.61;100.00
79703;BME280;69172;52.352;5.006;2023-07-31T07:33:33;100573.38;;;16.60;100.00
79703;BME280;69172;52.352;5.006;2023-07-31T07:36:02;100563.22;;;16.69;100.00
79703;BME280;69172;52.352;5.006;2023-07-31T07:38:27;100568.50;;;16.72;100.00
79703;BME280;69172;52.352;5.006;2023-07-31T07:40:53;100565.16;;;16.76;100.00
79703;BME280;69172;52.352;5.006;2023-07-31T07:43:19;100567.88;;;16.81;100.00
79703;BME280;69172;52.352;5.006;2023-07-31T07:45:45;100562.84;;;16.87;100.00
79703;BME280;69172;52.352;5.006;2023-07-31T07:48:11;100569.78;;;16.88;100.00
79703;BME280;69172;52.352;5.006;2023-07-31T07:50:39;100564.59;;;16.88;100.00
79703;BME280;69172;52.352;5.006;2023-07-31T07:53:04;100562.94;;;16.91;100.00
79703;BME280;69172;52.352;5.006;2023-07-31T07:55:30;100564.63;;;16.89;100.00
79703;BME280;69172;52.352;5.006;2023-07-31T07:57:55;100560.31;;;16.90;100.00
79703;BME280;69172;52.352;5.006;2023-07-31T08:00:21;100562.22;;;16.97;100.00
79703;BME280;69172;52.352;5.006;2023-07-31T08:02:46;100564.88;;;16.98;100.00
79703;BME280;69172;52.352;5.006;2023-07-31T08:05:12;100550.31;;;17.05;100.00
79703;BME280;69172;52.352;5.006;2023-07-31T08:07:38;100550.16;;;16.99;100.00
79703;BME280;69172;52.352;5.006;2023-07-31T08:10:03;100558.03;;;17.02;100.00
79703;BME280;69172;52.352;5.006;2023-07-31T08:12:29;100549.50;;;17.07;100.00
79703;BME280;69172;52.352;5.006;2023-07-31T08:14:54;100545.38;;;17.15;100.00
79703;BME280;69172;52.352;5.006;2023-07-31T08:17:19;100546.50;;;17.25;100.00
79703;BME280;69172;52.352;5.006;2023-07-31T08:19:45;100543.03;;;17.26;100.00
79703;BME280;69172;52.352;5.006;2023-07-31T08:22:11;100532.72;;;17.29;100.00
79703;BME280;69172;52.352;5.006;2023-07-31T08:24:36;100551.84;;;17.31;100.00
79703;BME280;69172;52.352;5.006;2023-07-31T08:27:02;100544.78;;;17.27;100.00
79703;BME280;69172;52.352;5.006;2023-07-31T08:29:27;100545.03;;;17.36;100.00
79703;BME280;69172;52.352;5.006;2023-07-31T08:31:53;100537.41;;;17.45;100.00
79703;BME280;69172;52.352;5.006;2023-07-31T08:34:19;100526.34;;;17.52;100.00
79703;BME280;69172;52.352;5.006;2023-07-31T08:36:44;100536.94;;;17.61;100.00
79703;BME280;69172;52.352;5.006;2023-07-31T08:39:12;100536.94;;;17.61;100.00
79703;BME280;69172;52.352;5.006;2023-07-31T08:41:40;100552.47;;;17.57;100.00
79703;BME280;69172;52.352;5.006;2023-07-31T08:44:10;100551.00;;;17.68;100.00
79703;BME280;69172;52.352;5.006;2023-07-31T08:46:36;100533.09;;;17.81;100.00
79703;BME280;69172;52.352;5.006;2023-07-31T08:49:04;100534.19;;;17.93;100.00
79703;BME280;69172;52.352;5.006;2023-07-31T08:51:33;100538.44;;;17.88;100.00
79703;BME280;69172;52.352;5.006;2023-07-31T08:53:59;100542.59;;;17.79;100.00
79703;BME280;69172;52.352;5.006;2023-07-31T08:56:25;100553.00;;;17.81;100.00
79703;BME280;69172;52.352;5.006;2023-07-31T08:58:52;100529.56;;;17.79;100.00
79703;BME280;69172;52.352;5.006;2023-07-31T09:01:19;100532.19;;;17.79;100.00
79703;BME280;69172;52.352;5.006;2023-07-31T09:03:46;100527.88;;;17.80;100.00
79703;BME280;69172;52.352;5.006;2023-07-31T09:06:13;100537.44;;;17.82;100.00
79703;BME280;69172;52.352;5.006;2023-07-31T09:08:41;100528.84;;;17.87;100.00
79703;BME280;69172;52.352;5.006;2023-07-31T09:11:07;100536.78;;;17.93;100.00
79703;BME280;69172;52.352;5.006;2023-07-31T09:13:33;100530.78;;;17.95;100.00
79703;BME280;69172;52.352;5.006;2023-07-31T09:15:58;100529.72;;;17.87;100.00
79703;BME280;69172;52.352;5.006;2023-07-31T09:18:24;100534.13;;;17.90;100.00
79703;BME280;69172;52.352;5.006;2023-07-31T09:21:05;100531.44;;;17.87;100.00
79703;BME280;69172;52.352;5.006;2023-07-31T09:23:45;100534.06;;;17.87;100.00
79703;BME280;69172;52.352;5.006;2023-07-31T09:26:31;100527.91;;;17.83;100.00
79703;BME280;69172;52.352;5.006;2023-07-31T09:28:58;100528.84;;;17.87;100.00
79703;BME280;69172;52.352;5.006;2023-07-31T09:33:59;100515.09;;;17.92;100.00
79703;BME280;69172;52.352;5.006;2023-07-31T09:36:29;100533.34;;;17.94;100.00
79703;BME280;69172;52.352;5.006;2023-07-31T09:38:55;100518.56;;;17.93;100.00
79703;BME280;69172;52.352;5.006;2023-07-31T09:41:21;100536.13;;;18.03;100.00
79703;BME280;69172;52.352;5.006;2023-07-31T09:43:53;100520.56;;;18.04;100.00
79703;BME280;69172;52.352;5.006;2023-07-31T09:46:20;100512.97;;;18.15;100.00
79703;BME280;69172;52.352;5.006;2023-07-31T09:48:46;100516.56;;;18.21;100.00
79703;BME280;69172;52.352;5.006;2023-07-31T09:51:12;100515.59;;;18.16;100.00
79703;BME280;69172;52.352;5.006;2023-07-31T09:53:37;100511.53;;;18.32;100.00
79703;BME280;69172;52.352;5.006;2023-07-31T09:56:03;100513.56;;;18.47;100.00
79703;BME280;69172;52.352;5.006;2023-07-31T09:58:34;100510.97;;;18.45;100.00
79703;BME280;69172;52.352;5.006;2023-07-31T10:01:01;100515.38;;;18.48;100.00
79703;BME280;69172;52.352;5.006;2023-07-31T10:03:27;100504.34;;;18.62;100.00
79703;BME280;69172;52.352;5.006;2023-07-31T10:05:56;100506.75;;;18.50;99.70
79703;BME280;69172;52.352;5.006;2023-07-31T10:08:28;100504.28;;;18.59;100.00
79703;BME280;69172;52.352;5.006;2023-07-31T10:10:58;100513.84;;;18.59;96.98
79703;BME280;69172;52.352;5.006;2023-07-31T10:13:24;100511.38;;;18.68;98.19
79703;BME280;69172;52.352;5.006;2023-07-31T10:15:50;100512.53;;;18.83;96.89
79703;BME280;69172;52.352;5.006;2023-07-31T10:18:17;100511.50;;;18.72;96.87
79703;BME280;69172;52.352;5.006;2023-07-31T10:20:44;100513.38;;;18.82;96.91
79703;BME280;69172;52.352;5.006;2023-07-31T10:23:10;100523.88;;;18.85;96.58
79703;BME280;69172;52.352;5.006;2023-07-31T10:25:37;100519.59;;;18.90;94.84
79703;BME280;69172;52.352;5.006;2023-07-31T10:28:02;100517.41;;;19.15;94.09
79703;BME280;69172;52.352;5.006;2023-07-31T10:30:30;100506.34;;;19.29;93.57
79703;BME280;69172;52.352;5.006;2023-07-31T10:32:58;100511.47;;;19.23;93.79
79703;BME280;69172;52.352;5.006;2023-07-31T10:35:23;100502.22;;;19.43;92.63
79703;BME280;69172;52.352;5.006;2023-07-31T10:37:49;100510.94;;;19.44;91.42
79703;BME280;69172;52.352;5.006;2023-07-31T10:40:19;100498.72;;;19.41;90.16
79703;BME280;69172;52.352;5.006;2023-07-31T10:42:49;100510.09;;;19.46;90.92
79703;BME280;69172;52.352;5.006;2023-07-31T10:47:58;100501.28;;;19.38;89.67
79703;BME280;69172;52.352;5.006;2023-07-31T10:50:24;100513.59;;;19.47;88.89
79703;BME280;69172;52.352;5.006;2023-07-31T10:52:52;100511.34;;;19.74;88.42
79703;BME280;69172;52.352;5.006;2023-07-31T10:55:27;100502.53;;;19.66;88.22
79703;BME280;69172;52.352;5.006;2023-07-31T10:57:55;100508.91;;;19.86;88.51
79703;BME280;69172;52.352;5.006;2023-07-31T11:00:29;100499.00;;;19.61;88.52
79703;BME280;69172;52.352;5.006;2023-07-31T11:03:05;100500.78;;;19.65;89.18
79703;BME280;69172;52.352;5.006;2023-07-31T11:06:02;100517.03;;;19.46;90.01
79703;BME280;69172;52.352;5.006;2023-07-31T11:08:34;100508.97;;;19.32;92.21
79703;BME280;69172;52.352;5.006;2023-07-31T11:16:10;100518.75;;;19.44;92.20
79703;BME280;69172;52.352;5.006;2023-07-31T11:18:38;100508.19;;;19.36;91.36
79703;BME280;69172;52.352;5.006;2023-07-31T11:21:04;100499.66;;;19.45;89.71
79703;BME280;69172;52.352;5.006;2023-07-31T11:23:30;100495.59;;;19.68;89.62
79703;BME280;69172;52.352;5.006;2023-07-31T11:25:59;100505.84;;;19.53;88.80
79703;BME280;69172;52.352;5.006;2023-07-31T11:28:25;100498.94;;;19.56;88.78
79703;BME280;69172;52.352;5.006;2023-07-31T11:30:50;100497.13;;;19.52;87.89
79703;BME280;69172;52.352;5.006;2023-07-31T11:33:17;100478.78;;;19.46;87.52
79703;BME280;69172;52.352;5.006;2023-07-31T11:35:46;100482.03;;;19.32;87.33
79703;BME280;69172;52.352;5.006;2023-07-31T11:38:12;100481.22;;;19.36;87.25
79703;BME280;69172;52.352;5.006;2023-07-31T11:40:46;100476.13;;;19.43;87.39
79703;BME280;69172;52.352;5.006;2023-07-31T11:43:12;100482.41;;;19.57;86.19
79703;BME280;69172;52.352;5.006;2023-07-31T11:45:53;100478.19;;;19.66;86.61
79703;BME280;69172;52.352;5.006;2023-07-31T11:48:24;100473.94;;;19.74;85.41
79703;BME280;69172;52.352;5.006;2023-07-31T11:50:51;100485.22;;;19.71;85.90
79703;BME280;69172;52.352;5.006;2023-07-31T11:53:20;100479.06;;;19.68;85.92
79703;BME280;69172;52.352;5.006;2023-07-31T11:55:47;100477.47;;;19.79;84.39
79703;BME280;69172;52.352;5.006;2023-07-31T11:58:13;100486.28;;;19.87;85.05
79703;BME280;69172;52.352;5.006;2023-07-31T12:00:41;100490.53;;;19.76;84.45
79703;BME280;69172;52.352;5.006;2023-07-31T12:03:07;100490.44;;;19.71;85.28
79703;BME280;69172;52.352;5.006;2023-07-31T12:05:41;100499.16;;;19.72;85.44
79703;BME280;69172;52.352;5.006;2023-07-31T12:08:10;100499.09;;;19.69;85.36
79703;BME280;69172;52.352;5.006;2023-07-31T12:10:37;100499.06;;;19.64;85.44
79703;BME280;69172;52.352;5.006;2023-07-31T12:13:05;100501.66;;;19.64;85.12
79703;BME280;69172;52.352;5.006;2023-07-31T12:15:42;100497.38;;;19.69;85.14
79703;BME280;69172;52.352;5.006;2023-07-31T12:18:15;100494.94;;;19.83;83.84
79703;BME280;69172;52.352;5.006;2023-07-31T12:20:45;100489.47;;;19.63;83.87
79703;BME280;69172;52.352;5.006;2023-07-31T12:25:40;100479.00;;;19.62;85.03
79703;BME280;69172;52.352;5.006;2023-07-31T12:28:06;100479.81;;;19.57;85.97
79703;BME280;69172;52.352;5.006;2023-07-31T12:30:36;100474.03;;;19.80;84.87
79703;BME280;69172;52.352;5.006;2023-07-31T12:33:15;100460.34;;;20.00;83.97
79703;BME280;69172;52.352;5.006;2023-07-31T12:35:45;100468.28;;;20.08;82.63
79703;BME280;69172;52.352;5.006;2023-07-31T12:38:12;100466.41;;;19.96;83.78
79703;BME280;69172;52.352;5.006;2023-07-31T12:40:40;100467.91;;;19.79;83.68
79703;BME280;69172;52.352;5.006;2023-07-31T12:43:07;100467.78;;;19.69;83.37
79703;BME280;69172;52.352;5.006;2023-07-31T12:45:32;100463.50;;;19.72;84.28
79703;BME280;69172;52.352;5.006;2023-07-31T12:47:58;100467.03;;;19.77;83.37
79703;BME280;69172;52.352;5.006;2023-07-31T12:50:24;100461.72;;;19.70;83.53
79703;BME280;69172;52.352;5.006;2023-07-31T12:52:51;100453.91;;;19.71;83.07
79703;BME280;69172;52.352;5.006;2023-07-31T12:55:16;100454.81;;;19.75;82.97
79703;BME280;69172;52.352;5.006;2023-07-31T12:57:45;100448.94;;;19.92;82.46
79703;BME280;69172;52.352;5.006;2023-07-31T13:00:11;100462.34;;;20.23;81.89
79703;BME280;69172;52.352;5.006;2023-07-31T13:02:38;100456.38;;;20.30;80.52